createdAt,value
2022-12-03T00:00:06.157Z,13.75
2022-12-03T00:02:36.509Z,10.85
2022-12-03T00:05:04.061Z,12.68
2022-12-03T00:07:31.528Z,14.02
2022-12-03T00:09:58.986Z,12.13
2022-12-03T00:12:26.385Z,8.93
2022-12-03T00:14:55.427Z,15.27
2022-12-03T00:17:23.002Z,14.27
2022-12-03T00:19:50.385Z,13.63
2022-12-03T00:22:17.807Z,11.98
2022-12-03T00:24:45.210Z,14.23
2022-12-03T00:27:12.627Z,13.13
2022-12-03T00:29:40.139Z,13.80
2022-12-03T00:32:08.886Z,12.40
2022-12-03T00:34:36.249Z,15.07
2022-12-03T00:37:03.744Z,14.00
2022-12-03T00:39:31.143Z,17.25
2022-12-03T00:41:58.536Z,17.90
2022-12-03T00:44:26.005Z,18.70
2022-12-03T00:46:53.441Z,16.23
2022-12-03T00:49:22.172Z,18.52
2022-12-03T00:51:49.672Z,10.40
2022-12-03T00:54:17.045Z,16.45
2022-12-03T00:56:44.420Z,18.35
2022-12-03T00:59:11.948Z,20.23
2022-12-03T01:01:39.389Z,16.48
2022-12-03T01:04:06.857Z,19.98
2022-12-03T01:06:35.594Z,16.48
2022-12-03T01:09:03.029Z,16.92
2022-12-03T01:11:39.585Z,16.30
2022-12-03T01:14:07.220Z,16.75
2022-12-03T01:16:34.812Z,15.23
2022-12-03T01:19:02.635Z,13.18
2022-12-03T01:21:30.028Z,13.15
2022-12-03T01:23:58.808Z,14.73
2022-12-03T01:26:26.301Z,14.40
2022-12-03T01:28:53.793Z,17.63
2022-12-03T01:31:39.091Z,15.35
2022-12-03T01:34:06.697Z,14.27
2022-12-03T01:36:35.148Z,14.77
2022-12-03T01:39:04.928Z,17.13
2022-12-03T01:41:33.171Z,18.27
2022-12-03T01:44:00.941Z,14.55
2022-12-03T01:46:29.360Z,14.48
2022-12-03T01:48:57.096Z,18.10
2022-12-03T01:51:24.606Z,15.52
2022-12-03T01:53:52.152Z,15.73
2022-12-03T01:56:20.919Z,18.38
2022-12-03T01:58:48.701Z,13.43
2022-12-03T02:01:17.606Z,15.52
2022-12-03T02:03:45.201Z,12.13
2022-12-03T02:06:16.112Z,12.35
2022-12-03T02:08:43.546Z,12.45
2022-12-03T02:11:16.056Z,14.13
2022-12-03T02:13:45.012Z,14.73
2022-12-03T02:16:12.636Z,14.57
2022-12-03T02:18:40.084Z,12.32
2022-12-03T02:21:12.517Z,14.35
2022-12-03T02:23:43.686Z,15.60
2022-12-03T02:26:12.504Z,16.60
2022-12-03T02:28:40.082Z,15.20
2022-12-03T02:31:07.694Z,16.70
2022-12-03T02:33:36.001Z,14.02
2022-12-03T02:36:04.274Z,13.10
2022-12-03T02:38:33.286Z,14.60
2022-12-03T02:41:03.210Z,14.23
2022-12-03T02:43:31.173Z,16.65
2022-12-03T02:46:00.313Z,16.30
2022-12-03T02:48:29.819Z,13.95
2022-12-03T02:50:59.734Z,13.35
2022-12-03T02:53:28.465Z,15.25
2022-12-03T02:55:57.121Z,14.48
2022-12-03T02:58:25.579Z,16.08
2022-12-03T03:00:54.907Z,11.88
2022-12-03T03:03:23.043Z,14.50
2022-12-03T03:05:51.074Z,15.55
2022-12-03T03:08:18.954Z,14.27
2022-12-03T03:10:47.665Z,11.82
2022-12-03T03:13:16.164Z,15.82
2022-12-03T03:15:43.774Z,12.63
2022-12-03T03:18:13.500Z,11.00
2022-12-03T03:20:40.945Z,12.18
2022-12-03T03:23:14.254Z,12.38
2022-12-03T03:25:42.869Z,12.15
2022-12-03T03:28:10.726Z,12.50
2022-12-03T03:30:39.505Z,10.07
2022-12-03T03:33:07.155Z,10.77
2022-12-03T03:35:36.155Z,10.45
2022-12-03T03:38:03.832Z,11.40
2022-12-03T03:40:31.353Z,10.13
2022-12-03T03:42:59.163Z,8.07
2022-12-03T03:45:29.407Z,10.43
2022-12-03T03:47:57.794Z,8.90
2022-12-03T03:50:25.466Z,6.47
2022-12-03T03:52:54.420Z,5.68
2022-12-03T03:55:21.958Z,6.90
2022-12-03T03:57:49.560Z,8.10
2022-12-03T04:00:17.420Z,7.57
2022-12-03T04:02:44.827Z,8.30
2022-12-03T04:05:15.431Z,6.03
2022-12-03T04:07:42.853Z,7.55
2022-12-03T04:10:26.299Z,6.53
2022-12-03T04:12:56.714Z,6.80
2022-12-03T04:15:24.559Z,5.82
2022-12-03T04:18:06.181Z,6.85
2022-12-03T04:20:33.626Z,6.72
2022-12-03T04:23:00.030Z,7.90
2022-12-03T04:25:46.506Z,7.72
2022-12-03T04:28:31.291Z,6.13
2022-12-03T04:30:58.703Z,6.10
2022-12-03T04:33:43.617Z,7.90
2022-12-03T04:36:12.125Z,8.25
2022-12-03T04:38:39.578Z,8.25
2022-12-03T04:41:08.422Z,6.80
2022-12-03T04:43:55.793Z,6.68
2022-12-03T04:46:23.294Z,7.32
2022-12-03T04:48:50.720Z,7.72
2022-12-03T04:51:18.119Z,7.25
2022-12-03T04:53:46.420Z,9.25
2022-12-03T04:56:15.315Z,8.65
2022-12-03T04:58:42.733Z,6.35
2022-12-03T05:01:10.154Z,8.07
2022-12-03T05:03:37.580Z,8.15
2022-12-03T05:06:05.069Z,8.63
2022-12-03T05:08:32.544Z,8.75
2022-12-03T05:10:59.923Z,8.20
2022-12-03T05:13:28.651Z,9.07
2022-12-03T05:15:56.026Z,8.27
2022-12-03T05:18:23.397Z,6.40
2022-12-03T05:20:53.486Z,7.82
2022-12-03T05:23:21.160Z,8.00
2022-12-03T05:25:48.602Z,8.95
2022-12-03T05:28:16.089Z,8.43
2022-12-03T05:30:44.897Z,8.88
2022-12-03T05:33:12.312Z,8.55
2022-12-03T05:35:39.683Z,8.90
2022-12-03T05:38:07.077Z,8.07
2022-12-03T05:40:34.511Z,9.13
2022-12-03T05:43:01.719Z,8.85
2022-12-03T05:45:30.022Z,7.90
2022-12-03T05:47:59.280Z,8.70
2022-12-03T05:50:27.589Z,8.32
2022-12-03T05:52:55.063Z,10.10
2022-12-03T05:55:22.617Z,8.63
2022-12-03T05:57:50.054Z,9.60
2022-12-03T06:00:18.431Z,9.02
2022-12-03T06:02:46.021Z,7.10
2022-12-03T06:05:15.754Z,8.18
2022-12-03T06:07:43.636Z,9.40
2022-12-03T06:10:12.236Z,9.52
2022-12-03T06:12:39.680Z,10.23
2022-12-03T06:15:07.859Z,9.20
2022-12-03T06:17:35.487Z,10.75
2022-12-03T06:20:02.889Z,11.20
2022-12-03T06:22:31.852Z,8.48
2022-12-03T06:25:04.839Z,9.50
2022-12-03T06:27:33.904Z,11.30
2022-12-03T06:30:01.300Z,10.55
2022-12-03T06:32:28.750Z,10.88
2022-12-03T06:34:56.334Z,10.80
2022-12-03T06:37:23.929Z,8.35
2022-12-03T06:39:52.765Z,9.95
2022-12-03T06:42:20.181Z,10.32
2022-12-03T06:44:47.613Z,9.60
2022-12-03T06:47:15.147Z,10.63
2022-12-03T06:49:42.562Z,10.32
2022-12-03T06:52:09.957Z,11.95
2022-12-03T06:54:37.377Z,10.52
2022-12-03T06:57:06.200Z,11.48
2022-12-03T06:59:35.754Z,12.15
2022-12-03T07:02:03.249Z,11.50
2022-12-03T07:04:30.704Z,11.82
2022-12-03T07:06:58.077Z,12.65
2022-12-03T07:09:25.505Z,11.63
2022-12-03T07:11:52.969Z,11.88
2022-12-03T07:14:21.857Z,11.45
2022-12-03T07:16:49.277Z,12.25
2022-12-03T07:19:16.780Z,12.48
2022-12-03T07:21:44.185Z,12.05
2022-12-03T07:24:11.607Z,9.80
2022-12-03T07:26:39.226Z,12.32
2022-12-03T07:29:06.745Z,12.90
2022-12-03T07:31:35.600Z,10.52
2022-12-03T07:34:03.234Z,5.60
2022-12-03T07:36:30.661Z,13.32
2022-12-03T07:38:58.128Z,9.73
2022-12-03T07:41:25.616Z,11.95
2022-12-03T07:43:53.002Z,13.40
2022-12-03T07:46:20.500Z,10.55
2022-12-03T07:48:49.285Z,13.73
2022-12-03T07:51:16.664Z,14.13
2022-12-03T07:53:44.037Z,12.15
2022-12-03T07:56:11.500Z,14.57
2022-12-03T07:58:38.890Z,13.30
2022-12-03T08:01:06.613Z,12.85
2022-12-03T08:03:34.085Z,14.23
2022-12-03T08:06:02.987Z,14.25
2022-12-03T08:08:30.660Z,14.63
2022-12-03T08:10:58.157Z,14.68
2022-12-03T08:13:25.573Z,12.07
2022-12-03T08:15:54.182Z,12.68
2022-12-03T08:18:22.391Z,15.07
2022-12-03T08:20:50.642Z,12.48
2022-12-03T08:23:20.871Z,12.88
2022-12-03T08:25:49.037Z,14.77
2022-12-03T08:28:18.861Z,14.80
2022-12-03T08:33:16.528Z,14.95
2022-12-03T08:35:46.506Z,14.52
2022-12-03T08:38:13.901Z,17.52
2022-12-03T08:40:43.656Z,15.38
2022-12-03T08:43:14.058Z,14.23
2022-12-03T08:45:42.525Z,12.48
2022-12-03T08:48:29.850Z,14.55
2022-12-03T08:50:58.046Z,13.50
2022-12-03T08:53:32.878Z,13.30
2022-12-03T08:56:02.092Z,12.57
2022-12-03T08:58:34.287Z,16.20
2022-12-03T09:01:06.747Z,18.00
2022-12-03T09:03:34.485Z,17.70
2022-12-03T09:06:02.193Z,17.63
2022-12-03T09:08:29.656Z,18.65
2022-12-03T09:10:57.130Z,17.88
2022-12-03T09:13:26.006Z,17.73
2022-12-03T09:15:53.489Z,18.70
2022-12-03T09:18:20.918Z,18.55
2022-12-03T09:20:48.324Z,18.02
2022-12-03T09:23:15.744Z,16.98
2022-12-03T09:25:43.189Z,17.58
2022-12-03T09:28:10.598Z,19.75
2022-12-03T09:30:39.630Z,18.80
2022-12-03T09:33:07.088Z,22.30
2022-12-03T09:35:34.559Z,17.85
2022-12-03T09:38:01.960Z,20.75
2022-12-03T09:40:29.521Z,19.13
2022-12-03T09:42:58.507Z,19.95
2022-12-03T09:45:25.949Z,21.63
2022-12-03T09:47:55.833Z,18.83
2022-12-03T09:52:51.780Z,16.00
2022-12-03T09:55:21.736Z,21.00
2022-12-03T09:57:49.378Z,20.58
2022-12-03T10:00:18.691Z,22.17
2022-12-03T10:02:46.405Z,24.65
2022-12-03T10:05:15.619Z,23.92
2022-12-03T10:07:43.245Z,22.25
2022-12-03T10:10:16.321Z,22.67
2022-12-03T10:12:43.825Z,22.08
2022-12-03T10:15:13.288Z,35.67
2022-12-03T10:17:40.794Z,30.08
2022-12-03T10:20:11.596Z,23.48
2022-12-03T10:22:40.596Z,20.85
2022-12-03T10:25:10.040Z,20.80
2022-12-03T10:27:37.465Z,20.35
2022-12-03T10:30:06.370Z,21.70
2022-12-03T10:32:40.934Z,24.13
2022-12-03T10:35:09.663Z,22.27
2022-12-03T10:37:37.232Z,23.52
2022-12-03T10:40:09.403Z,21.35
2022-12-03T10:42:37.605Z,25.58
2022-12-03T10:45:09.605Z,20.73
2022-12-03T10:47:37.083Z,20.75
2022-12-03T10:50:05.869Z,23.10
2022-12-03T10:52:33.943Z,31.15
2022-12-03T10:55:01.453Z,37.58
2022-12-03T10:57:30.224Z,25.80
2022-12-03T10:59:57.626Z,24.02
2022-12-03T11:02:25.708Z,24.40
2022-12-03T11:04:53.802Z,25.75
2022-12-03T11:07:22.659Z,29.75
2022-12-03T11:09:51.064Z,28.33
2022-12-03T11:12:19.519Z,22.17
2022-12-03T11:15:06.265Z,23.27
2022-12-03T11:17:40.816Z,27.38
2022-12-03T11:20:10.369Z,23.95
2022-12-03T11:22:42.732Z,24.48
2022-12-03T11:25:28.832Z,26.70
2022-12-03T11:28:18.489Z,33.65
2022-12-03T11:30:59.004Z,31.73
2022-12-03T11:33:27.239Z,37.88
2022-12-03T11:36:10.283Z,26.85
2022-12-03T11:38:42.631Z,30.30
2022-12-03T11:41:12.225Z,28.20
2022-12-03T11:43:58.670Z,27.15
2022-12-03T11:46:28.486Z,24.00
2022-12-03T11:51:24.339Z,24.23
2022-12-03T11:53:52.542Z,25.48
2022-12-03T11:56:21.363Z,26.10
2022-12-03T11:58:48.931Z,32.03
2022-12-03T12:01:16.489Z,24.70
2022-12-03T12:03:46.559Z,23.90
2022-12-03T12:06:14.911Z,25.95
2022-12-03T12:08:43.371Z,25.42
2022-12-03T12:11:18.242Z,25.80
2022-12-03T12:13:57.968Z,23.25
2022-12-03T12:16:38.656Z,24.38
2022-12-03T12:19:24.929Z,24.30
2022-12-03T12:21:53.712Z,25.17
2022-12-03T12:24:35.880Z,27.88
2022-12-03T12:27:04.379Z,24.00
2022-12-03T12:29:31.774Z,25.45
2022-12-03T12:32:00.755Z,28.95
2022-12-03T12:34:28.207Z,25.97
2022-12-03T12:36:58.373Z,23.05
2022-12-03T12:39:26.709Z,25.65
2022-12-03T12:41:55.246Z,23.27
2022-12-03T12:44:23.668Z,24.17
2022-12-03T12:46:52.826Z,23.38
2022-12-03T12:49:23.400Z,20.35
2022-12-03T12:51:51.254Z,23.70
2022-12-03T12:54:19.999Z,22.73
2022-12-03T12:56:49.879Z,24.55
2022-12-03T13:01:45.618Z,23.58
2022-12-03T13:04:14.356Z,25.27
2022-12-03T13:06:41.808Z,24.55
2022-12-03T13:09:13.767Z,22.83
2022-12-03T13:11:45.612Z,22.67
2022-12-03T13:14:15.992Z,23.67
2022-12-03T13:16:43.606Z,24.35
2022-12-03T13:19:17.547Z,22.70
2022-12-03T13:21:45.443Z,24.77
2022-12-03T13:24:26.651Z,23.58
2022-12-03T13:26:55.535Z,23.35
2022-12-03T13:29:23.644Z,25.90
2022-12-03T13:31:53.251Z,24.17
2022-12-03T13:34:22.228Z,25.80
2022-12-03T13:36:57.152Z,25.35
2022-12-03T13:39:27.974Z,25.00
2022-12-03T13:42:14.314Z,24.67
2022-12-03T13:44:44.929Z,24.20
2022-12-03T13:47:13.525Z,25.52
2022-12-03T13:49:40.926Z,23.52
2022-12-03T13:52:11.652Z,23.30
2022-12-03T13:54:39.529Z,23.70
2022-12-03T13:57:08.325Z,24.40
2022-12-03T13:59:35.745Z,24.25
2022-12-03T14:02:03.259Z,24.60
2022-12-03T14:04:30.669Z,23.75
2022-12-03T14:06:58.132Z,23.42
2022-12-03T14:09:25.529Z,23.00
2022-12-03T14:12:10.746Z,22.30
2022-12-03T14:14:40.500Z,22.63
2022-12-03T14:17:09.602Z,23.65
2022-12-03T14:19:37.050Z,24.52
2022-12-03T14:22:06.877Z,23.98
2022-12-03T14:27:01.581Z,21.67
2022-12-03T14:29:29.004Z,22.30
2022-12-03T14:31:57.975Z,23.27
2022-12-03T14:34:25.411Z,24.23
2022-12-03T14:36:52.818Z,22.05
2022-12-03T14:39:20.211Z,25.08
2022-12-03T14:42:05.096Z,21.67
2022-12-03T14:44:32.737Z,23.90
2022-12-03T14:47:01.463Z,22.70
2022-12-03T14:49:28.906Z,21.77
2022-12-03T14:51:56.376Z,22.60
2022-12-03T14:54:23.840Z,23.88
2022-12-03T14:56:51.231Z,23.05
2022-12-03T14:59:22.995Z,23.48
2022-12-03T15:01:53.638Z,23.70
2022-12-03T15:04:22.820Z,22.05
2022-12-03T15:06:50.437Z,22.40
2022-12-03T15:09:17.922Z,23.58
2022-12-03T15:11:47.091Z,23.55
2022-12-03T15:14:14.585Z,23.35
2022-12-03T15:16:42.067Z,23.20
2022-12-03T15:19:09.564Z,23.50
2022-12-03T15:21:39.693Z,22.33
2022-12-03T15:24:07.550Z,22.77
2022-12-03T15:26:34.940Z,24.40
2022-12-03T15:29:02.363Z,22.65
2022-12-03T15:31:30.877Z,25.00
2022-12-03T15:33:58.265Z,23.38
2022-12-03T15:36:25.665Z,23.33
2022-12-03T15:38:54.473Z,24.75
2022-12-03T15:41:24.110Z,22.15
2022-12-03T15:43:52.249Z,23.55
2022-12-03T15:46:19.781Z,21.85
2022-12-03T15:48:47.335Z,24.35
2022-12-03T15:51:15.088Z,25.10
2022-12-03T15:53:42.641Z,21.80
2022-12-03T15:56:12.497Z,23.77
2022-12-03T16:01:07.442Z,21.85
2022-12-03T16:03:34.865Z,19.83
2022-12-03T16:06:18.174Z,24.75
2022-12-03T16:08:45.981Z,24.23
2022-12-03T16:11:14.741Z,21.83
2022-12-03T16:13:42.153Z,21.60
2022-12-03T16:16:09.698Z,24.15
2022-12-03T16:18:37.136Z,26.23
2022-12-03T16:21:04.552Z,21.05
2022-12-03T16:23:31.989Z,24.60
2022-12-03T16:25:59.430Z,25.40
2022-12-03T16:28:28.187Z,30.92
2022-12-03T16:30:55.660Z,28.02
2022-12-03T16:33:27.594Z,20.88
2022-12-03T16:35:55.605Z,25.50
2022-12-03T16:38:23.198Z,30.02
2022-12-03T16:40:50.594Z,27.55
2022-12-03T16:43:18.457Z,24.25
2022-12-03T16:46:02.217Z,25.02
2022-12-03T16:48:29.996Z,24.48
2022-12-03T16:50:57.492Z,27.17
2022-12-03T16:53:24.903Z,28.85
2022-12-03T16:55:52.285Z,25.77
2022-12-03T16:58:21.283Z,25.60
2022-12-03T17:00:50.423Z,27.30
2022-12-03T17:03:21.333Z,24.50
2022-12-03T17:05:48.783Z,25.48
2022-12-03T17:08:17.080Z,23.10
2022-12-03T17:10:44.889Z,22.70
2022-12-03T17:13:12.514Z,27.48
2022-12-03T17:15:40.345Z,28.35
2022-12-03T17:18:09.527Z,25.73
2022-12-03T17:20:37.512Z,29.80
2022-12-03T17:23:06.010Z,30.33
2022-12-03T17:25:34.368Z,25.77
2022-12-03T17:28:04.711Z,24.90
2022-12-03T17:30:32.132Z,24.40
2022-12-03T17:32:59.604Z,24.40
2022-12-03T17:35:28.677Z,24.27
2022-12-03T17:37:56.169Z,24.55
2022-12-03T17:40:23.909Z,24.48
2022-12-03T17:42:51.297Z,25.10
2022-12-03T17:45:18.776Z,23.83
2022-12-03T17:47:46.190Z,24.70
2022-12-03T17:50:13.817Z,22.35
2022-12-03T17:52:43.985Z,24.17
2022-12-03T17:55:17.728Z,24.00
2022-12-03T17:57:48.977Z,22.80
2022-12-03T18:00:16.549Z,22.95
2022-12-03T18:02:43.935Z,23.35
2022-12-03T18:05:11.439Z,25.52
2022-12-03T18:07:38.912Z,21.50
2022-12-03T18:10:08.629Z,24.60
2022-12-03T18:12:40.868Z,25.92
2022-12-03T18:15:09.506Z,21.60
2022-12-03T18:17:36.952Z,21.75
2022-12-03T18:20:04.979Z,22.52
2022-12-03T18:22:32.553Z,21.20
2022-12-03T18:25:00.081Z,20.48
2022-12-03T18:27:28.896Z,21.50
2022-12-03T18:29:57.945Z,21.90
2022-12-03T18:32:29.378Z,21.75
2022-12-03T18:34:57.714Z,20.52
2022-12-03T18:37:27.114Z,21.58
2022-12-03T18:39:58.354Z,17.48
2022-12-03T18:42:26.186Z,21.17
2022-12-03T18:44:56.040Z,21.65
2022-12-03T18:49:55.999Z,18.55
2022-12-03T18:52:24.913Z,19.65
2022-12-03T18:54:55.231Z,19.95
2022-12-03T18:57:22.710Z,20.80
2022-12-03T18:59:53.058Z,20.50
2022-12-03T19:03:01.090Z,19.25
2022-12-03T19:05:13.109Z,22.15
2022-12-03T19:07:40.582Z,21.60
2022-12-03T19:10:08.931Z,21.02
2022-12-03T19:12:36.340Z,21.35
2022-12-03T19:15:04.604Z,19.63
2022-12-03T19:17:34.985Z,19.83
2022-12-03T19:20:02.547Z,21.42
2022-12-03T19:22:31.271Z,19.45
2022-12-03T19:24:58.803Z,19.23
2022-12-03T19:27:26.227Z,20.58
2022-12-03T19:30:08.320Z,19.60
2022-12-03T19:32:38.351Z,19.70
2022-12-03T19:35:07.511Z,20.50
2022-12-03T19:37:34.919Z,18.90
2022-12-03T19:40:02.548Z,19.73
2022-12-03T19:42:31.126Z,19.92
2022-12-03T19:44:58.620Z,19.52
2022-12-03T19:47:26.026Z,19.38
2022-12-03T19:49:54.899Z,19.25
2022-12-03T19:52:22.539Z,18.88
2022-12-03T19:54:52.367Z,17.73
2022-12-03T19:59:50.942Z,16.00
2022-12-03T20:02:21.500Z,17.27
2022-12-03T20:04:51.626Z,20.00
2022-12-03T20:07:20.469Z,18.05
2022-12-03T20:09:50.317Z,17.83
2022-12-03T20:14:52.768Z,17.20
2022-12-03T20:17:23.206Z,19.15
2022-12-03T20:19:51.259Z,18.60
2022-12-03T20:22:24.450Z,18.80
2022-12-03T20:24:53.610Z,18.58
2022-12-03T20:27:23.646Z,18.65
2022-12-03T20:29:53.854Z,19.60
2022-12-03T20:32:21.705Z,19.33
2022-12-03T20:34:49.635Z,20.15
2022-12-03T20:37:26.176Z,18.60
2022-12-03T20:39:54.105Z,16.42
2022-12-03T20:42:21.709Z,18.67
2022-12-03T20:44:51.942Z,17.33
2022-12-03T20:47:19.463Z,18.35
2022-12-03T20:49:47.085Z,18.48
2022-12-03T20:52:14.608Z,16.92
2022-12-03T20:54:48.705Z,17.08
2022-12-03T20:57:16.135Z,17.20
2022-12-03T20:59:43.548Z,18.30
2022-12-03T21:02:14.016Z,19.65
2022-12-03T21:04:41.545Z,18.35
2022-12-03T21:07:08.948Z,17.23
2022-12-03T21:09:36.389Z,20.52
2022-12-03T21:12:06.785Z,22.25
2022-12-03T21:14:35.753Z,19.15
2022-12-03T21:17:10.454Z,19.87
2022-12-03T21:19:38.400Z,18.85
2022-12-03T21:22:05.861Z,19.27
2022-12-03T21:24:36.822Z,20.05
2022-12-03T21:27:05.663Z,19.52
2022-12-03T21:29:36.120Z,19.80
2022-12-03T21:32:03.525Z,20.55
2022-12-03T21:34:36.076Z,19.67
2022-12-03T21:37:06.688Z,17.52
2022-12-03T21:39:34.157Z,15.05
2022-12-03T21:42:34.512Z,20.50
2022-12-03T21:44:53.552Z,20.17
2022-12-03T21:47:23.899Z,19.25
2022-12-03T21:49:51.437Z,18.40
2022-12-03T21:52:18.934Z,18.45
2022-12-03T21:54:46.489Z,19.77
2022-12-03T21:57:15.245Z,19.70
2022-12-03T21:59:43.791Z,20.27
2022-12-03T22:02:11.567Z,18.02
2022-12-03T22:04:41.512Z,20.73
2022-12-03T22:09:36.187Z,18.15
2022-12-03T22:12:03.614Z,18.73
2022-12-03T22:14:32.631Z,18.98
2022-12-03T22:17:00.070Z,16.40
2022-12-03T22:19:29.154Z,20.25
2022-12-03T22:21:56.666Z,20.85
2022-12-03T22:24:24.128Z,21.88
2022-12-03T22:26:54.742Z,20.45
2022-12-03T22:29:22.155Z,17.45
2022-12-03T22:31:52.732Z,19.95
2022-12-03T22:34:20.155Z,19.35
2022-12-03T22:36:47.566Z,20.48
2022-12-03T22:39:15.015Z,19.17
2022-12-03T22:41:42.420Z,20.23
2022-12-03T22:44:10.054Z,20.88
2022-12-03T22:46:37.526Z,17.65
2022-12-03T22:49:09.104Z,18.55
2022-12-03T22:51:36.622Z,19.38
2022-12-03T22:54:04.461Z,17.42
2022-12-03T22:56:32.061Z,18.52
2022-12-03T22:58:59.558Z,19.08
2022-12-03T23:01:28.017Z,19.83
2022-12-03T23:03:56.589Z,17.60
2022-12-03T23:06:25.857Z,17.45
2022-12-03T23:08:56.451Z,17.17
2022-12-03T23:11:23.948Z,18.00
2022-12-03T23:13:51.344Z,19.58
2022-12-03T23:16:21.283Z,19.88
2022-12-03T23:18:50.180Z,18.50
2022-12-03T23:21:18.127Z,20.30
2022-12-03T23:23:46.963Z,16.38
2022-12-03T23:26:15.154Z,16.30
2022-12-03T23:28:43.280Z,16.38
2022-12-03T23:31:16.178Z,16.60
2022-12-03T23:33:43.667Z,16.73
2022-12-03T23:36:11.323Z,17.55
2022-12-03T23:38:38.767Z,18.85
2022-12-03T23:41:08.455Z,18.08
2022-12-03T23:43:36.017Z,17.63
2022-12-03T23:46:04.157Z,18.77
2022-12-03T23:48:31.898Z,15.63
2022-12-03T23:50:59.524Z,14.93
2022-12-03T23:53:26.914Z,16.25
2022-12-03T23:55:54.445Z,16.38
2022-12-03T23:58:23.237Z,15.02
